Time;durP1;ratioP1;P1;durP2;ratioP2;P2;SDS_P1;SDS_P2;PMS_P1;PMS_P2;Temp;Humidity;BMP_temperature;BMP_pressure;BME280_temperature;BME280_humidity;BME280_pressure;Samples;Min_cycle;Max_cycle;Signal;HPM_P1;HPM_P2
2022/09/01 00:01:42;;;;;;;0.00;0.00;;;14.70;94.70;;;;;;4896200;29;20049;-80
2022/09/01 00:04:12;;;;;;;0.00;0.00;;;14.70;94.70;;;;;;4898666;29;20465;-83
2022/09/01 00:06:39;;;;;;;0.00;0.00;;;14.70;94.90;;;;;;4900247;29;20437;-83
2022/09/01 00:09:08;;;;;;;0.00;0.00;;;14.70;94.90;;;;;;4896939;29;20055;-84
2022/09/01 00:11:36;;;;;;;0.00;0.00;;;;;;;;;;4895695;29;20032;-83
2022/09/01 00:14:05;;;;;;;0.00;0.00;;;14.70;95.10;;;;;;4894272;29;20100;-83
2022/09/01 00:16:46;;;;;;;0.00;0.00;;;14.70;95.20;;;;;;4894320;29;20054;-84
2022/09/01 00:19:18;;;;;;;0.00;0.00;;;14.70;95.00;;;;;;4893468;29;20116;-82
2022/09/01 00:21:46;;;;;;;0.00;0.00;;;14.70;95.10;;;;;;4895148;29;20048;-84
2022/09/01 00:24:15;;;;;;;0.00;0.00;;;14.60;95.40;;;;;;4895248;29;20104;-84
2022/09/01 00:26:43;;;;;;;0.00;0.00;;;;;;;;;;4893550;29;20040;-82
2022/09/01 00:29:09;;;;;;;0.00;0.00;;;14.60;94.90;;;;;;4898296;29;20481;-82
2022/09/01 00:31:37;;;;;;;0.00;0.00;;;14.60;95.30;;;;;;4890270;29;20056;-82
2022/09/01 00:34:04;;;;;;;0.00;0.00;;;14.50;95.30;;;;;;4895649;29;20063;-82
2022/09/01 00:36:32;;;;;;;0.00;0.00;;;14.50;95.30;;;;;;4894091;29;20325;-83
2022/09/01 00:38:59;;;;;;;0.00;0.00;;;14.50;95.30;;;;;;4896594;29;20162;-82
2022/09/01 00:41:29;;;;;;;0.00;0.00;;;14.50;95.40;;;;;;4894450;29;20048;-82
2022/09/01 00:44:04;;;;;;;0.00;0.00;;;14.50;95.60;;;;;;4894493;29;20073;-82
2022/09/01 00:46:34;;;;;;;0.00;0.00;;;14.50;95.40;;;;;;4896318;29;20171;-82
2022/09/01 00:49:10;;;;;;;0.00;0.00;;;14.50;95.40;;;;;;4891469;29;20037;-82
2022/09/01 00:51:41;;;;;;;0.00;0.00;;;14.50;95.70;;;;;;4891955;29;20398;-82
2022/09/01 00:54:14;;;;;;;0.00;0.00;;;14.40;95.60;;;;;;4895138;29;20044;-82
2022/09/01 00:56:42;;;;;;;0.00;0.00;;;14.40;95.70;;;;;;4894100;29;20051;-81
2022/09/01 00:59:16;;;;;;;0.00;0.00;;;14.40;95.80;;;;;;4892857;29;20279;-82
2022/09/01 01:01:43;;;;;;;0.00;0.00;;;14.40;95.60;;;;;;4893241;29;20088;-81
2022/09/01 01:04:13;;;;;;;0.00;0.00;;;14.40;95.70;;;;;;4894826;29;20045;-82
2022/09/01 01:06:44;;;;;;;0.00;0.00;;;14.40;96.00;;;;;;4897349;29;20080;-82
2022/09/01 01:09:12;;;;;;;0.00;0.00;;;14.40;95.80;;;;;;4896032;29;20032;-80
2022/09/01 01:11:39;;;;;;;0.00;0.00;;;14.40;95.80;;;;;;4894759;29;20379;-83
2022/09/01 01:14:11;;;;;;;0.00;0.00;;;14.40;95.90;;;;;;4895351;29;20048;-82
2022/09/01 01:16:42;;;;;;;0.00;0.00;;;14.40;96.00;;;;;;4892479;29;20089;-82
2022/09/01 01:23:01;;;;;;;0.00;0.00;;;14.40;96.10;;;;;;4890148;29;20488;-82
2022/09/01 01:25:00;;;;;;;0.00;0.00;;;14.40;96.00;;;;;;4892636;29;20116;-82
2022/09/01 01:27:32;;;;;;;0.10;0.10;;;14.30;96.70;;;;;;4892880;29;20052;-82
2022/09/01 01:30:10;;;;;;;0.00;0.00;;;14.30;96.40;;;;;;4895352;29;20063;-82
2022/09/01 01:32:42;;;;;;;0.00;0.00;;;14.30;96.50;;;;;;4892408;29;20057;-82
2022/09/01 01:35:14;;;;;;;0.00;0.00;;;14.30;96.60;;;;;;4894914;29;20055;-80
2022/09/01 01:37:44;;;;;;;0.00;0.00;;;14.30;96.50;;;;;;4884717;29;20139;-82
2022/09/01 01:40:14;;;;;;;;;;;14.30;96.70;;;;;;4896662;29;20100;-82
2022/09/01 01:42:44;;;;;;;0.00;0.00;;;14.40;96.70;;;;;;4895337;29;19923;-82
2022/09/01 01:45:11;;;;;;;0.00;0.00;;;14.30;96.70;;;;;;4898546;29;20100;-82
2022/09/01 01:47:38;;;;;;;0.00;0.00;;;14.30;97.00;;;;;;4898496;29;20057;-82
2022/09/01 01:50:08;;;;;;;0.00;0.00;;;14.30;97.00;;;;;;4895707;29;20029;-81
2022/09/01 01:52:35;;;;;;;0.00;0.00;;;14.30;97.30;;;;;;4900445;29;20052;-82
2022/09/01 01:55:09;;;;;;;0.00;0.00;;;14.20;97.20;;;;;;4899420;29;20488;-82
2022/09/01 01:57:38;;;;;;;0.00;0.00;;;14.20;97.30;;;;;;4899348;29;20040;-81
2022/09/01 02:00:06;;;;;;;0.00;0.00;;;14.20;97.30;;;;;;4895565;29;20093;-80
2022/09/01 02:02:33;;;;;;;0.00;0.00;;;14.20;97.40;;;;;;4899760;29;20049;-82
2022/09/01 02:05:00;;;;;;;0.00;0.00;;;14.20;97.40;;;;;;4895077;29;20051;-83
2022/09/01 02:07:27;;;;;;;0.00;0.00;;;14.10;97.90;;;;;;4892777;29;20041;-82
2022/09/01 02:10:00;;;;;;;0.00;0.00;;;14.10;98.10;;;;;;4896041;29;20520;-83
2022/09/01 02:12:27;;;;;;;0.00;0.00;;;14.10;97.80;;;;;;4895904;29;20534;-83
2022/09/01 02:14:56;;;;;;;0.10;0.10;;;14.10;97.90;;;;;;4898507;29;20115;-81
2022/09/01 02:17:24;;;;;;;0.00;0.00;;;14.10;98.10;;;;;;4897705;29;20100;-81
2022/09/01 02:19:56;;;;;;;0.00;0.00;;;14.10;98.10;;;;;;4897611;29;20501;-80
2022/09/01 02:22:23;;;;;;;0.00;0.00;;;14.10;97.90;;;;;;4899821;29;20044;-82
2022/09/01 02:24:51;;;;;;;0.10;0.10;;;14.00;98.40;;;;;;4897736;29;20048;-81
2022/09/01 02:27:23;;;;;;;0.00;0.00;;;14.00;98.30;;;;;;4895631;29;20089;-81
2022/09/01 02:29:54;;;;;;;0.00;0.00;;;14.00;98.00;;;;;;4901058;29;20110;-81
2022/09/01 02:32:22;;;;;;;0.00;0.00;;;14.00;98.20;;;;;;4899237;29;20051;-81
2022/09/01 02:34:52;;;;;;;0.00;0.00;;;14.00;98.40;;;;;;4900119;29;20049;-83
2022/09/01 02:37:23;;;;;;;0.00;0.00;;;14.00;98.50;;;;;;4899319;29;20077;-83
2022/09/01 02:39:52;;;;;;;0.00;0.00;;;14.00;98.40;;;;;;4901993;29;20052;-81
2022/09/01 02:42:25;;;;;;;0.00;0.00;;;14.00;98.60;;;;;;4897515;29;20045;-83
2022/09/01 02:44:53;;;;;;;0.00;0.00;;;14.00;99.00;;;;;;4898184;29;20489;-81
2022/09/01 02:47:24;;;;;;;0.00;0.00;;;13.90;99.10;;;;;;4908933;29;20058;-82
2022/09/01 02:49:51;;;;;;;0.10;0.10;;;13.90;99.20;;;;;;4900481;29;20095;-82
2022/09/01 02:52:21;;;;;;;0.00;0.00;;;13.90;99.00;;;;;;4896961;29;20064;-82
2022/09/01 02:54:49;;;;;;;0.00;0.00;;;14.00;98.70;;;;;;4900970;29;20079;-82
2022/09/01 02:57:16;;;;;;;0.10;0.10;;;14.00;98.50;;;;;;4899094;29;20067;-83
2022/09/01 02:59:44;;;;;;;0.00;0.00;;;13.90;99.20;;;;;;4900865;29;20104;-82
2022/09/01 03:02:11;;;;;;;0.00;0.00;;;13.90;98.90;;;;;;4896955;29;20033;-82
2022/09/01 03:04:39;;;;;;;0.00;0.00;;;13.80;98.80;;;;;;4900381;29;20056;-83
2022/09/01 03:07:07;;;;;;;0.00;0.00;;;13.90;99.10;;;;;;4889956;23;20041;-85
2022/09/01 03:09:34;;;;;;;0.00;0.00;;;13.80;99.30;;;;;;4870957;29;20523;-85
2022/09/01 03:12:01;;;;;;;0.00;0.00;;;;;;;;;;4862315;29;20097;-85
2022/09/01 03:14:28;;;;;;;0.00;0.00;;;13.70;99.20;;;;;;4866134;29;20057;-84
2022/09/01 03:16:56;;;;;;;0.00;0.00;;;13.70;99.30;;;;;;4877038;29;20050;-84
2022/09/01 03:19:23;;;;;;;0.00;0.00;;;13.70;99.50;;;;;;4876350;29;20037;-87
2022/09/01 03:21:51;;;;;;;0.00;0.00;;;13.60;99.80;;;;;;4855116;29;20511;-87
2022/09/01 03:24:18;;;;;;;0.00;0.00;;;13.60;99.90;;;;;;4854314;29;20053;-87
2022/09/01 03:26:46;;;;;;;0.00;0.00;;;13.50;99.90;;;;;;4870790;29;20061;-87
2022/09/01 03:29:16;;;;;;;0.00;0.00;;;13.50;99.90;;;;;;4836772;29;20392;-88
2022/09/01 03:31:43;;;;;;;0.10;0.10;;;13.50;99.90;;;;;;4872615;29;20046;-87
2022/09/01 03:34:11;;;;;;;0.00;0.00;;;13.50;99.90;;;;;;4856028;29;20094;-86
2022/09/01 03:36:38;;;;;;;0.00;0.00;;;13.50;99.90;;;;;;4866645;29;20590;-87
2022/09/01 03:39:08;;;;;;;0.00;0.00;;;13.50;99.90;;;;;;4868372;29;20050;-87
2022/09/01 03:41:42;;;;;;;0.00;0.00;;;13.40;99.90;;;;;;4854561;29;20049;-87
2022/09/01 03:44:10;;;;;;;0.00;0.00;;;13.40;99.90;;;;;;4867622;29;20065;-86
2022/09/01 03:46:39;;;;;;;0.00;0.00;;;13.30;99.90;;;;;;4852235;29;20049;-86
2022/09/01 03:49:06;;;;;;;0.00;0.00;;;13.30;99.90;;;;;;4870653;29;20514;-88
2022/09/01 03:51:34;;;;;;;0.05;0.05;;;13.30;99.90;;;;;;4856416;29;20450;-87
2022/09/01 03:54:00;;;;;;;0.00;0.00;;;13.30;99.90;;;;;;4871195;29;20054;-87
2022/09/01 03:56:29;;;;;;;0.00;0.00;;;13.30;99.90;;;;;;4857861;29;20061;-87
2022/09/01 03:58:58;;;;;;;0.00;0.00;;;13.20;99.90;;;;;;4868849;29;20042;-87
2022/09/01 04:01:26;;;;;;;0.00;0.00;;;13.10;99.90;;;;;;4852644;29;20559;-87
2022/09/01 04:03:53;;;;;;;0.00;0.00;;;13.20;99.90;;;;;;4854177;29;20057;-87
2022/09/01 04:06:22;;;;;;;0.05;0.05;;;13.10;99.90;;;;;;4862993;29;20103;-87
2022/09/01 04:08:54;;;;;;;0.00;0.00;;;;;;;;;;4855309;29;20061;-87
2022/09/01 04:11:22;;;;;;;0.10;0.10;;;13.00;99.90;;;;;;4845433;29;20492;-87
2022/09/01 04:13:51;;;;;;;0.00;0.00;;;13.00;99.90;;;;;;4852147;29;20053;-88
2022/09/01 04:19:24;;;;;;;0.10;0.10;;;13.00;99.90;;;;;;4852298;29;20064;-87
2022/09/01 04:21:53;;;;;;;0.10;0.10;;;13.00;99.90;;;;;;4869784;29;20227;-87
2022/09/01 04:24:23;;;;;;;0.00;0.00;;;13.00;99.90;;;;;;4857563;29;20045;-87
2022/09/01 04:26:50;;;;;;;0.00;0.00;;;;;;;;;;4872418;29;20057;-87
2022/09/01 04:29:26;;;;;;;0.00;0.00;;;13.00;99.90;;;;;;4852401;29;20061;-87
2022/09/01 04:31:54;;;;;;;0.00;0.00;;;13.00;99.90;;;;;;4868583;29;20046;-86
2022/09/01 04:34:23;;;;;;;0.00;0.00;;;14.10;99.90;;;;;;4854208;29;20069;-86
2022/09/01 04:36:53;;;;;;;0.00;0.00;;;12.90;99.90;;;;;;4868815;29;20434;-87
2022/09/01 04:39:20;;;;;;;;;;;12.90;99.90;;;;;;4869671;29;20056;-88
2022/09/01 04:41:48;;;;;;;0.00;0.00;;;12.90;99.90;;;;;;4851964;29;19936;-87
2022/09/01 04:44:17;;;;;;;0.00;0.00;;;12.90;99.90;;;;;;4850094;29;20050;-87
2022/09/01 04:46:47;;;;;;;0.10;0.10;;;13.00;99.90;;;;;;4850431;29;20413;-85
2022/09/01 04:49:18;;;;;;;0.00;0.00;;;12.90;99.90;;;;;;4871414;29;20448;-87
2022/09/01 04:51:48;;;;;;;0.00;0.00;;;12.90;99.90;;;;;;4853404;29;20046;-87
2022/09/01 04:54:21;;;;;;;0.00;0.00;;;12.90;99.90;;;;;;4850225;29;20428;-89
2022/09/01 04:56:49;;;;;;;0.00;0.00;;;12.90;99.90;;;;;;4855879;29;20050;-87
2022/09/01 04:59:21;;;;;;;0.00;0.00;;;12.90;99.90;;;;;;4849433;29;20057;-86
2022/09/01 05:01:53;;;;;;;0.00;0.00;;;12.90;99.90;;;;;;4849842;29;20061;-87
2022/09/01 05:04:23;;;;;;;0.05;0.05;;;12.90;99.90;;;;;;4872203;29;20049;-85
2022/09/01 05:06:58;;;;;;;0.10;0.10;;;12.80;99.90;;;;;;4859910;29;20049;-86
2022/09/01 05:09:26;;;;;;;0.10;0.10;;;12.90;99.90;;;;;;4859806;29;20073;-87
2022/09/01 05:11:55;;;;;;;0.10;0.10;;;12.90;99.90;;;;;;4856430;29;20511;-87
2022/09/01 05:14:23;;;;;;;0.00;0.00;;;13.00;99.90;;;;;;4854926;29;20522;-87
2022/09/01 05:16:55;;;;;;;0.10;0.10;;;13.00;99.90;;;;;;4861573;29;20076;-87
2022/09/01 05:19:27;;;;;;;0.00;0.00;;;13.00;99.90;;;;;;4867792;29;20049;-87
2022/09/01 05:21:56;;;;;;;0.00;0.00;;;13.00;99.90;;;;;;4854622;29;20041;-85
2022/09/01 05:24:29;;;;;;;0.00;0.00;;;;;;;;;;4872329;29;20041;-89
2022/09/01 05:26:56;;;;;;;0.10;0.10;;;13.00;99.90;;;;;;4876779;29;20145;-87
2022/09/01 05:29:24;;;;;;;0.00;0.00;;;13.00;99.90;;;;;;4874780;29;20106;-86
2022/09/01 05:31:57;;;;;;;0.00;0.00;;;13.00;99.90;;;;;;4874394;29;20456;-87
2022/09/01 05:34:25;;;;;;;0.00;0.00;;;13.10;99.90;;;;;;4863651;29;20064;-86
2022/09/01 05:36:56;;;;;;;0.00;0.00;;;13.10;99.90;;;;;;4861555;29;20062;-86
2022/09/01 05:39:23;;;;;;;0.10;0.10;;;13.20;99.90;;;;;;4858668;29;20053;-86
2022/09/01 05:41:51;;;;;;;0.00;0.00;;;13.10;99.90;;;;;;4876092;29;20053;-86
2022/09/01 05:44:21;;;;;;;0.00;0.00;;;13.10;99.90;;;;;;4862587;29;20049;-86
2022/09/01 05:46:49;;;;;;;0.00;0.00;;;13.20;99.90;;;;;;4863462;29;20061;-87
2022/09/01 05:49:18;;;;;;;0.00;0.00;;;13.20;99.90;;;;;;4862574;29;20114;-87
2022/09/01 05:51:50;;;;;;;0.00;0.00;;;13.30;99.90;;;;;;4876216;29;20500;-87
2022/09/01 05:54:21;;;;;;;0.05;0.05;;;13.30;99.90;;;;;;4858480;29;20049;-86
2022/09/01 05:56:48;;;;;;;0.00;0.00;;;13.40;99.90;;;;;;4860355;29;20053;-88
2022/09/01 05:59:15;;;;;;;0.00;0.00;;;13.40;99.90;;;;;;4859703;29;20057;-87
2022/09/01 06:01:52;;;;;;;0.00;0.00;;;13.40;99.90;;;;;;4873708;29;20617;-87
2022/09/01 06:04:22;;;;;;;0.00;0.00;;;13.50;99.90;;;;;;4859714;29;20057;-87
2022/09/01 06:06:49;;;;;;;0.08;0.08;;;13.60;99.90;;;;;;4875060;29;20081;-86
2022/09/01 06:09:37;;;;;;;0.00;0.00;;;13.50;99.90;;;;;;4862446;29;20053;-87
2022/09/01 06:12:05;;;;;;;0.00;0.00;;;13.60;99.90;;;;;;4858646;29;20049;-87
2022/09/01 06:14:32;;;;;;;0.00;0.00;;;13.60;99.90;;;;;;4875698;29;20460;-86
2022/09/01 06:16:59;;;;;;;0.00;0.00;;;13.60;99.90;;;;;;4857260;29;20049;-86
2022/09/01 06:19:27;;;;;;;0.00;0.00;;;13.70;99.90;;;;;;4855501;29;20049;-87
2022/09/01 06:21:58;;;;;;;0.00;0.00;;;13.80;99.90;;;;;;4877940;29;20045;-87
2022/09/01 06:24:26;;;;;;;0.00;0.00;;;13.80;99.90;;;;;;4868525;29;20202;-87
2022/09/01 06:26:53;;;;;;;0.00;0.00;;;13.80;99.90;;;;;;4856805;29;20057;-88
2022/09/01 06:29:20;;;;;;;0.00;0.00;;;13.90;99.90;;;;;;4858125;29;20046;-87
2022/09/01 06:31:51;;;;;;;0.00;0.00;;;14.00;99.90;;;;;;4859639;29;20102;-88
2022/09/01 06:34:18;;;;;;;0.00;0.00;;;14.10;99.90;;;;;;4872904;29;20097;-87
2022/09/01 06:36:50;;;;;;;0.00;0.00;;;14.10;99.90;;;;;;4855423;29;21209;-87
2022/09/01 06:39:20;;;;;;;0.00;0.00;;;14.20;99.90;;;;;;4857630;29;20045;-87
2022/09/01 06:41:48;;;;;;;0.00;0.00;;;14.30;99.90;;;;;;4875461;29;20098;-86
2022/09/01 06:44:21;;;;;;;0.00;0.00;;;14.30;99.90;;;;;;4873930;29;20097;-86
2022/09/01 06:46:48;;;;;;;0.00;0.00;;;14.30;99.90;;;;;;4874888;29;20053;-87
2022/09/01 06:49:15;;;;;;;0.00;0.00;;;14.40;99.90;;;;;;4853397;29;20469;-86
2022/09/01 06:51:42;;;;;;;0.00;0.00;;;14.40;99.90;;;;;;4855300;29;20548;-87
2022/09/01 06:54:13;;;;;;;0.00;0.00;;;14.60;99.90;;;;;;4871112;29;20053;-86
2022/09/01 06:56:40;;;;;;;0.00;0.00;;;14.50;99.90;;;;;;4861677;29;20051;-86
2022/09/01 06:59:30;;;;;;;0.00;0.00;;;14.50;99.90;;;;;;4868849;29;20071;-87
2022/09/01 07:02:17;;;;;;;0.00;0.00;;;14.60;99.90;;;;;;4853384;29;20041;-87
2022/09/01 07:04:44;;;;;;;0.00;0.00;;;14.70;99.90;;;;;;4856526;29;20056;-87
2022/09/01 07:07:11;;;;;;;0.00;0.00;;;14.70;99.90;;;;;;4858110;29;20068;-87
2022/09/01 07:10:00;;;;;;;0.00;0.00;;;14.70;99.90;;;;;;4861107;29;20049;-87
2022/09/01 07:12:47;;;;;;;0.00;0.00;;;14.80;99.90;;;;;;4859066;29;20060;-87
2022/09/01 07:15:38;;;;;;;0.00;0.00;;;14.80;99.90;;;;;;4858860;29;20046;-87
2022/09/01 07:18:26;;;;;;;0.00;0.00;;;14.90;99.90;;;;;;4860454;29;20054;-86
2022/09/01 07:20:54;;;;;;;0.00;0.00;;;15.00;99.90;;;;;;4852007;29;20496;-87
2022/09/01 07:23:33;;;;;;;0.00;0.00;;;15.30;99.90;;;;;;4855497;29;20386;-87
2022/09/01 07:26:21;;;;;;;0.00;0.00;;;15.10;99.90;;;;;;4866706;29;20061;-86
2022/09/01 07:28:52;;;;;;;0.00;0.00;;;15.30;99.90;;;;;;4865420;29;20041;-86
2022/09/01 07:31:30;;;;;;;0.00;0.00;;;15.20;99.90;;;;;;4857334;29;20082;-87
2022/09/01 07:34:19;;;;;;;0.00;0.00;;;15.40;99.90;;;;;;4860201;29;20049;-86
2022/09/01 07:37:05;;;;;;;0.00;0.00;;;15.30;99.90;;;;;;4866512;29;20132;-86
2022/09/01 07:39:54;;;;;;;0.00;0.00;;;15.40;99.90;;;;;;4852010;29;20064;-87
2022/09/01 07:42:42;;;;;;;0.00;0.00;;;15.50;99.90;;;;;;4867234;29;20058;-87
2022/09/01 07:45:29;;;;;;;0.00;0.00;;;15.50;99.90;;;;;;4860267;29;20037;-87
2022/09/01 07:48:02;;;;;;;0.00;0.00;;;15.60;99.90;;;;;;4863036;29;20048;-87
2022/09/01 07:50:29;;;;;;;0.00;0.00;;;15.60;99.90;;;;;;4868900;29;20121;-87
2022/09/01 07:53:18;;;;;;;0.00;0.00;;;15.70;99.90;;;;;;4864798;29;20080;-87
2022/09/01 07:55:48;;;;;;;0.10;0.10;;;15.80;99.90;;;;;;4856237;29;20053;-87
2022/09/01 07:58:19;;;;;;;0.00;0.00;;;15.90;99.90;;;;;;4871331;29;20424;-87
2022/09/01 08:00:48;;;;;;;0.00;0.00;;;16.10;99.90;;;;;;4859142;29;20064;-86
2022/09/01 08:03:17;;;;;;;0.00;0.00;;;16.10;99.90;;;;;;4856982;29;20476;-86
2022/09/01 08:05:46;;;;;;;0.00;0.00;;;16.10;99.90;;;;;;4856283;29;20117;-87
2022/09/01 08:08:13;;;;;;;0.00;0.00;;;16.20;99.90;;;;;;4855418;29;20629;-86
2022/09/01 08:10:55;;;;;;;0.00;0.00;;;16.30;99.90;;;;;;4869227;29;20274;-86
2022/09/01 08:13:32;;;;;;;0.00;0.00;;;16.30;99.90;;;;;;4856544;29;20060;-87
2022/09/01 08:16:09;;;;;;;0.00;0.00;;;16.40;99.90;;;;;;4859199;29;20073;-87
2022/09/01 08:18:46;;;;;;;0.00;0.00;;;16.60;99.90;;;;;;4857880;29;20076;-87
2022/09/01 08:21:17;;;;;;;0.00;0.00;;;16.60;99.90;;;;;;4842888;29;20053;-87
2022/09/01 08:23:44;;;;;;;0.00;0.00;;;16.70;99.90;;;;;;4857763;29;20338;-86
2022/09/01 08:26:13;;;;;;;0.00;0.00;;;16.80;99.90;;;;;;4870039;29;20118;-87
2022/09/01 08:28:41;;;;;;;0.00;0.00;;;16.90;99.80;;;;;;4872564;29;20057;-87
2022/09/01 08:31:16;;;;;;;0.00;0.00;;;17.00;99.90;;;;;;4860569;29;20124;-87
2022/09/01 08:33:46;;;;;;;0.00;0.00;;;17.00;99.60;;;;;;4859627;29;20045;-87
2022/09/01 08:36:15;;;;;;;0.00;0.00;;;17.10;99.20;;;;;;4873401;29;20049;-87
2022/09/01 08:38:49;;;;;;;0.00;0.00;;;17.20;99.10;;;;;;4857236;29;20053;-87
2022/09/01 08:41:23;;;;;;;0.00;0.00;;;17.20;99.30;;;;;;4856502;29;20126;-87
2022/09/01 08:44:13;;;;;;;0.00;0.00;;;17.20;99.20;;;;;;4871186;29;20042;-86
2022/09/01 08:46:41;;;;;;;0.00;0.00;;;17.30;98.90;;;;;;4870405;29;20081;-85
2022/09/01 08:49:15;;;;;;;0.00;0.00;;;17.40;99.00;;;;;;4857202;29;20509;-86
2022/09/01 08:51:57;;;;;;;0.00;0.00;;;17.50;99.00;;;;;;4856591;29;20053;-86
2022/09/01 08:54:33;;;;;;;0.00;0.00;;;17.50;99.00;;;;;;4857956;29;20556;-88
2022/09/01 08:57:05;;;;;;;0.00;0.00;;;17.50;98.80;;;;;;4873131;29;20133;-86
2022/09/01 08:59:33;;;;;;;0.00;0.00;;;17.50;98.60;;;;;;4853008;29;20058;-86
2022/09/01 09:02:14;;;;;;;0.00;0.00;;;18.80;98.70;;;;;;4861063;29;20053;-86
2022/09/01 09:04:55;;;;;;;0.00;0.00;;;17.80;98.40;;;;;;4851540;29;20054;-86
2022/09/01 09:07:35;;;;;;;0.00;0.00;;;17.80;98.30;;;;;;4873450;29;20053;-87
2022/09/01 09:10:10;;;;;;;0.00;0.00;;;17.90;98.10;;;;;;4855395;29;20045;-87
2022/09/01 09:12:50;;;;;;;0.00;0.00;;;18.00;97.60;;;;;;4855093;29;20085;-87
2022/09/01 09:15:25;;;;;;;0.00;0.00;;;18.10;98.10;;;;;;4857576;29;20061;-87
2022/09/01 09:17:58;;;;;;;0.00;0.00;;;18.20;97.30;;;;;;4877750;29;20049;-86
2022/09/01 09:20:27;;;;;;;0.00;0.00;;;18.20;97.10;;;;;;4865818;29;20141;-86
2022/09/01 09:22:54;;;;;;;0.00;0.00;;;18.30;96.40;;;;;;4871990;29;20046;-84
2022/09/01 09:25:23;;;;;;;0.00;0.00;;;18.40;96.00;;;;;;4855215;29;20050;-87
2022/09/01 09:27:50;;;;;;;0.00;0.00;;;18.60;95.60;;;;;;4873741;29;20435;-84
2022/09/01 09:30:30;;;;;;;0.00;0.00;;;18.70;95.50;;;;;;4856050;29;20569;-85
2022/09/01 09:32:59;;;;;;;0.00;0.00;;;18.80;94.80;;;;;;4873585;29;20053;-85
2022/09/01 09:35:46;;;;;;;0.00;0.00;;;18.80;95.00;;;;;;4865978;29;20435;-86
2022/09/01 09:38:31;;;;;;;0.00;0.00;;;18.90;95.00;;;;;;4869714;29;20065;-84
2022/09/01 09:41:02;;;;;;;0.00;0.00;;;19.00;94.80;;;;;;4861409;29;20045;-86
2022/09/01 09:43:48;;;;;;;0.00;0.00;;;19.10;94.20;;;;;;4859151;29;20041;-87
2022/09/01 09:46:26;;;;;;;0.00;0.00;;;19.30;94.00;;;;;;4857855;29;20056;-86
2022/09/01 09:49:14;;;;;;;0.00;0.00;;;19.40;93.30;;;;;;4874012;29;20420;-85
2022/09/01 09:51:43;;;;;;;0.00;0.00;;;19.50;93.60;;;;;;4869327;29;20061;-85
2022/09/01 09:54:13;;;;;;;0.00;0.00;;;19.50;93.10;;;;;;4851314;29;20492;-87
2022/09/01 09:56:43;;;;;;;0.00;0.00;;;19.60;93.40;;;;;;4856351;29;20045;-86
2022/09/01 09:59:18;;;;;;;0.00;0.00;;;19.70;92.90;;;;;;4859442;29;20495;-86
2022/09/01 10:02:25;;;;;;;0.00;0.00;;;19.80;93.10;;;;;;4856264;29;20041;-86
2022/09/01 10:04:55;;;;;;;0.00;0.00;;;20.00;92.60;;;;;;4852980;29;20061;-86
2022/09/01 10:07:27;;;;;;;0.00;0.00;;;20.30;92.80;;;;;;4854068;29;20057;-85
2022/09/01 10:09:55;;;;;;;0.00;0.00;;;20.60;91.40;;;;;;4859762;29;20083;-88
2022/09/01 10:12:24;;;;;;;0.00;0.00;;;20.80;91.20;;;;;;4866306;29;20049;-86
2022/09/01 10:14:54;;;;;;;0.00;0.00;;;21.20;91.40;;;;;;4858095;29;20703;-87
2022/09/01 10:17:29;;;;;;;0.00;0.00;;;21.20;91.00;;;;;;4856461;29;20057;-88
2022/09/01 10:20:03;;;;;;;0.00;0.00;;;21.30;90.30;;;;;;4859762;29;20107;-86
2022/09/01 10:22:32;;;;;;;0.00;0.00;;;21.40;90.20;;;;;;4858874;29;20049;-85
2022/09/01 10:24:59;;;;;;;0.00;0.00;;;21.40;89.80;;;;;;4855802;29;20045;-86
2022/09/01 10:27:29;;;;;;;0.00;0.00;;;21.60;89.30;;;;;;4859956;29;20045;-87
2022/09/01 10:30:04;;;;;;;0.00;0.00;;;21.60;89.70;;;;;;4854372;29;20136;-84
2022/09/01 10:32:44;;;;;;;0.00;0.00;;;21.60;88.40;;;;;;4854381;29;20150;-86
2022/09/01 10:35:24;;;;;;;0.00;0.00;;;21.60;89.30;;;;;;4876672;29;20049;-85
2022/09/01 10:37:52;;;;;;;0.00;0.00;;;21.80;88.60;;;;;;4873855;29;20049;-87
2022/09/01 10:40:34;;;;;;;0.00;0.00;;;21.80;87.90;;;;;;4856680;29;20081;-86
2022/09/01 10:43:39;;;;;;;0.00;0.00;;;22.00;88.00;;;;;;4855539;29;20082;-85
2022/09/01 10:46:25;;;;;;;0.00;0.00;;;22.10;86.80;;;;;;4870420;29;20053;-84
2022/09/01 10:49:20;;;;;;;0.00;0.00;;;22.10;86.80;;;;;;4852929;29;20071;-85
2022/09/01 10:51:54;;;;;;;0.00;0.00;;;22.00;87.20;;;;;;4871951;29;20056;-87
2022/09/01 10:54:44;;;;;;;;;;;22.00;86.30;;;;;;4857129;29;20061;-86
2022/09/01 10:57:34;;;;;;;0.00;0.00;;;22.10;82.50;;;;;;4869437;29;20310;-84
2022/09/01 11:00:46;;;;;;;0.00;0.00;;;22.30;83.40;;;;;;4848207;29;20082;-86
2022/09/01 11:03:52;;;;;;;0.00;0.00;;;22.40;83.00;;;;;;4864672;29;20050;-83
2022/09/01 11:07:00;;;;;;;0.00;0.00;;;22.70;82.70;;;;;;4869142;29;20129;-87
2022/09/01 11:10:25;;;;;;;0.00;0.00;;;22.90;81.90;;;;;;4853372;29;20410;-84
2022/09/01 11:13:30;;;;;;;0.00;0.00;;;23.00;81.60;;;;;;4856855;29;20045;-85
2022/09/01 11:16:27;;;;;;;0.00;0.00;;;23.20;80.30;;;;;;4850492;29;20492;-84
2022/09/01 11:19:30;;;;;;;0.00;0.00;;;23.20;79.80;;;;;;4868461;29;20056;-86
2022/09/01 11:22:25;;;;;;;0.00;0.00;;;23.20;78.20;;;;;;4852504;29;20491;-87
2022/09/01 11:25:35;;;;;;;0.00;0.00;;;23.40;78.20;;;;;;4858617;29;20599;-85
2022/09/01 11:28:37;;;;;;;0.00;0.00;;;23.60;77.00;;;;;;4860370;29;20057;-87
2022/09/01 11:31:30;;;;;;;0.00;0.00;;;23.80;76.90;;;;;;4845631;29;20932;-85
2022/09/01 11:34:17;;;;;;;0.00;0.00;;;23.80;76.00;;;;;;4870663;29;20076;-85
2022/09/01 11:37:02;;;;;;;0.00;0.00;;;23.60;77.10;;;;;;4873111;29;20053;-85
2022/09/01 11:39:39;;;;;;;0.00;0.00;;;23.40;77.70;;;;;;4857214;29;20441;-86
2022/09/01 11:42:12;;;;;;;0.00;0.00;;;24.00;79.70;;;;;;4860820;29;20041;-86
2022/09/01 11:44:45;;;;;;;0.00;0.00;;;23.10;77.40;;;;;;4857289;29;20046;-86
2022/09/01 11:47:16;;;;;;;0.00;0.00;;;22.90;77.40;;;;;;4873466;29;20049;-86
2022/09/01 11:49:52;;;;;;;0.00;0.00;;;22.80;77.10;;;;;;4868825;29;20050;-85
2022/09/01 11:52:22;;;;;;;0.00;0.00;;;22.50;76.90;;;;;;4856546;29;20492;-84
2022/09/01 11:54:50;;;;;;;0.00;0.00;;;22.70;77.30;;;;;;4853044;29;20049;-87
2022/09/01 11:57:21;;;;;;;0.00;0.00;;;22.90;78.20;;;;;;4852044;29;20053;-86
2022/09/01 11:59:48;;;;;;;0.00;0.00;;;23.10;75.30;;;;;;4851348;29;20080;-85
2022/09/01 12:02:21;;;;;;;0.00;0.00;;;23.40;77.30;;;;;;4852716;29;20049;-86
2022/09/01 12:04:50;;;;;;;0.00;0.00;;;23.60;72.70;;;;;;4857411;29;20491;-87
2022/09/01 12:07:37;;;;;;;0.00;0.00;;;23.80;74.70;;;;;;4853266;29;20057;-87
2022/09/01 12:10:14;;;;;;;0.00;0.00;;;23.80;74.40;;;;;;4850248;29;20062;-85
2022/09/01 12:12:41;;;;;;;0.00;0.00;;;24.00;75.30;;;;;;4871619;29;20049;-85
2022/09/01 12:15:15;;;;;;;0.00;0.00;;;24.20;74.30;;;;;;4853228;29;20046;-87
2022/09/01 12:17:44;;;;;;;0.00;0.00;;;24.50;72.40;;;;;;4868658;29;20045;-87
2022/09/01 12:20:24;;;;;;;0.00;0.00;;;24.50;71.40;;;;;;4856726;29;20041;-86
2022/09/01 12:22:55;;;;;;;0.00;0.00;;;24.30;72.10;;;;;;4857366;29;20051;-84
2022/09/01 12:25:27;;;;;;;0.00;0.00;;;24.20;70.30;;;;;;4857807;29;20080;-87
2022/09/01 12:27:54;;;;;;;0.00;0.00;;;24.10;71.20;;;;;;4853463;29;20114;-86
2022/09/01 12:30:27;;;;;;;0.00;0.00;;;24.00;71.70;;;;;;4862273;29;20056;-86
2022/09/01 12:32:58;;;;;;;0.00;0.00;;;23.80;69.80;;;;;;4871489;29;20072;-86
2022/09/01 12:35:45;;;;;;;0.00;0.00;;;;;;;;;;4871887;29;20050;-86
2022/09/01 12:38:24;;;;;;;0.00;0.00;;;23.70;68.20;;;;;;4854167;29;20068;-87
2022/09/01 12:40:55;;;;;;;0.00;0.00;;;23.60;70.80;;;;;;4855676;29;20049;-83
2022/09/01 12:43:35;;;;;;;0.00;0.00;;;23.60;71.10;;;;;;4851940;29;20545;-83
2022/09/01 12:46:05;;;;;;;0.00;0.00;;;23.60;72.20;;;;;;4857461;29;20046;-84
2022/09/01 12:48:34;;;;;;;0.00;0.00;;;23.70;71.00;;;;;;4858490;29;20045;-87
2022/09/01 12:51:05;;;;;;;0.00;0.00;;;23.60;70.10;;;;;;4873826;29;20407;-84
2022/09/01 12:53:35;;;;;;;0.00;0.00;;;23.60;70.60;;;;;;4868566;29;20068;-85
2022/09/01 12:56:17;;;;;;;0.00;0.00;;;23.70;69.80;;;;;;4853887;29;20057;-86
2022/09/01 12:58:48;;;;;;;0.00;0.00;;;23.90;68.30;;;;;;4858079;29;20108;-86
2022/09/01 13:01:27;;;;;;;0.00;0.00;;;23.80;68.70;;;;;;4868397;29;20364;-86
2022/09/01 13:04:29;;;;;;;0.00;0.00;;;23.70;68.60;;;;;;4866931;29;20095;-86
2022/09/01 13:07:01;;;;;;;0.00;0.00;;;23.50;67.90;;;;;;4835058;29;20064;-84
2022/09/01 13:09:28;;;;;;;0.00;0.00;;;23.60;68.90;;;;;;4851878;29;20059;-84
2022/09/01 13:12:10;;;;;;;0.00;0.00;;;23.50;69.10;;;;;;4854894;29;20033;-84
2022/09/01 13:14:37;;;;;;;0.00;0.00;;;23.60;69.10;;;;;;4873019;29;20049;-84
2022/09/01 13:17:04;;;;;;;0.00;0.00;;;23.50;69.50;;;;;;4871122;29;20050;-83
2022/09/01 13:19:38;;;;;;;0.00;0.00;;;23.60;68.40;;;;;;4853977;29;20049;-85
2022/09/01 13:22:06;;;;;;;0.00;0.00;;;23.50;68.90;;;;;;4859063;29;20072;-85
2022/09/01 13:24:33;;;;;;;0.00;0.00;;;23.50;70.70;;;;;;4858387;29;20050;-84
2022/09/01 13:27:00;;;;;;;0.00;0.00;;;23.50;70.60;;;;;;4869855;29;20518;-85
2022/09/01 13:29:49;;;;;;;0.00;0.00;;;23.70;71.10;;;;;;4853331;29;20057;-86